Unicom:                    122.8

AWOS:                  118.275

Elevation           1458’ MSL

TPA:                   2500’ MSL

06/24:         5003’ L   75’ W

PAPI:       06/Left     24/Left

(Operate lights on unicom freq.)

Traffic Pattern: Left

Beacon: Sunset to Sunrise

Windsock: yes, lighted

Segmented Circle: No

 

Cleveland Center: 126.72/291.65

FSS: Altoona

[Source: ADDS]
METAR
KFKL 212356Z AUTO 23008KT 10SM CLR M03/M12 A3037 RMK AO2 SLP311 T10281122 10000 21028 56012 FZRANO =
KFKL 212335Z 2200/2224 26008KT P6SM SKC FM220900 VRB05KT P6SM SKC WS020/27040KT FM221200 VRB05KT P6SM SKC
TAF
KFKL 212335Z 2200/2224 26008KT P6SM SKC FM220900 VRB05KT P6SM SKC WS020/27040KT FM221200 VRB05KT P6SM SKC =
[Source: ADDS]
METAR
KDUJ 212353Z AUTO 24007KT 10SM CLR M03/M13 A3034 RMK AO2 SLP304 T10331133 11006 21033 56007 =
KDUJ 212335Z 2200/2224 26005KT P6SM SKC FM220900 VRB05KT P6SM SKC WS020/27040KT FM221200 25008G15KT P6SM SKC
TAF
KDUJ 212335Z 2200/2224 26005KT P6SM SKC FM220900 VRB05KT P6SM SKC WS020/27040KT FM221200 25008G15KT P6SM SKC =

Resources.


We are a PSI Computer Testing Facility.

To schedule an FAA exam, i.e. Private Pilot, Drone, Flight Instructor, Parachute Rigger you can schedule through CATS with the icon below, or call the airport at 814-226-9993.

Pilot Supplies.